Atascosa, Texas
Current Conditions -  °F | °C
As of 1:55 PM on Sunday 21 Dec 2014 (Local Time) from KCVB Reporting Station
Overcast Overcast  
Wind Chill: 55°   Ceiling: 1300
Heat Index: 55°   Visibility: 7mi
Dew Point: 47°   Wind: 8mph
Humidity: 75%   Direction: 210°SSW
Pressure: 29.99"   Gusts: 16mph
Location:  29.28°N, 98.74°W
Report Text: KCVB 211955Z AUTO 21007G14KT 7SM OVC013 13/09 A2999 RMK AO2 T01290085
Loading
Personal Weather Stations






























Interactive Weather Map New forecast layout! Learn more

10-Day Weather Forecast

Advertisements
Track Severe Weather on mobile